sensor_id;sensor_type;location;lat;lon;timestamp;pressure;altitude;pressure_sealevel;temperature;humidity
29379;BME280;16362;47.202;15.258;2023-06-19T00:01:03;96028.50;;;15.56;100.00
29379;BME280;16362;47.202;15.258;2023-06-19T00:03:30;96028.72;;;15.55;100.00
29379;BME280;16362;47.202;15.258;2023-06-19T00:05:56;96031.81;;;15.52;100.00
29379;BME280;16362;47.202;15.258;2023-06-19T00:08:23;96024.59;;;15.52;100.00
29379;BME280;16362;47.202;15.258;2023-06-19T00:10:50;96024.59;;;15.52;100.00
29379;BME280;16362;47.202;15.258;2023-06-19T00:13:16;96027.69;;;15.49;100.00
29379;BME280;16362;47.202;15.258;2023-06-19T00:15:45;96027.69;;;15.49;100.00
29379;BME280;16362;47.202;15.258;2023-06-19T00:18:12;96034.13;;;15.48;100.00
29379;BME280;16362;47.202;15.258;2023-06-19T00:20:38;96032.47;;;15.47;100.00
29379;BME280;16362;47.202;15.258;2023-06-19T00:23:05;96033.47;;;15.46;100.00
29379;BME280;16362;47.202;15.258;2023-06-19T00:25:37;96025.41;;;15.46;100.00
29379;BME280;16362;47.202;15.258;2023-06-19T00:28:04;96029.97;;;15.45;100.00
29379;BME280;16362;47.202;15.258;2023-06-19T00:30:30;96031.22;;;15.43;100.00
29379;BME280;16362;47.202;15.258;2023-06-19T00:32:59;96034.13;;;15.41;100.00
29379;BME280;16362;47.202;15.258;2023-06-19T00:35:29;96040.34;;;15.28;100.00
29379;BME280;16362;47.202;15.258;2023-06-19T00:37:56;96034.56;;;15.25;100.00
29379;BME280;16362;47.202;15.258;2023-06-19T00:40:28;96036.22;;;15.26;100.00
29379;BME280;16362;47.202;15.258;2023-06-19T00:42:56;96039.75;;;15.26;100.00
29379;BME280;16362;47.202;15.258;2023-06-19T00:45:23;96035.81;;;15.22;100.00
29379;BME280;16362;47.202;15.258;2023-06-19T00:47:52;96032.28;;;15.22;100.00
29379;BME280;16362;47.202;15.258;2023-06-19T00:50:20;96032.50;;;15.20;100.00
29379;BME280;16362;47.202;15.258;2023-06-19T00:52:48;96024.88;;;15.17;100.00
29379;BME280;16362;47.202;15.258;2023-06-19T00:55:15;96023.84;;;15.11;100.00
29379;BME280;16362;47.202;15.258;2023-06-19T00:57:43;96026.72;;;15.10;100.00
29379;BME280;16362;47.202;15.258;2023-06-19T01:00:10;96021.34;;;15.10;100.00
29379;BME280;16362;47.202;15.258;2023-06-19T01:02:39;96024.25;;;15.08;100.00
29379;BME280;16362;47.202;15.258;2023-06-19T01:05:06;96020.53;;;15.09;100.00
29379;BME280;16362;47.202;15.258;2023-06-19T01:10:32;96012.06;;;15.06;100.00
29379;BME280;16362;47.202;15.258;2023-06-19T01:13:08;96014.34;;;14.95;100.00
29379;BME280;16362;47.202;15.258;2023-06-19T01:15:36;96013.94;;;14.92;100.00
29379;BME280;16362;47.202;15.258;2023-06-19T01:18:05;96010.66;;;14.90;100.00
29379;BME280;16362;47.202;15.258;2023-06-19T01:20:32;96006.50;;;14.87;100.00
29379;BME280;16362;47.202;15.258;2023-06-19T01:23:09;96012.28;;;14.84;100.00
29379;BME280;16362;47.202;15.258;2023-06-19T01:25:36;95999.47;;;14.79;100.00
29379;BME280;16362;47.202;15.258;2023-06-19T01:28:05;95999.91;;;14.76;100.00
29379;BME280;16362;47.202;15.258;2023-06-19T01:30:37;96000.50;;;14.72;100.00
29379;BME280;16362;47.202;15.258;2023-06-19T01:33:18;96009.00;;;14.69;100.00
29379;BME280;16362;47.202;15.258;2023-06-19T01:35:47;96011.03;;;14.67;100.00
29379;BME280;16362;47.202;15.258;2023-06-19T01:38:15;96012.09;;;14.65;100.00
29379;BME280;16362;47.202;15.258;2023-06-19T01:40:44;96013.91;;;14.58;100.00
29379;BME280;16362;47.202;15.258;2023-06-19T01:43:12;96007.28;;;14.54;100.00
29379;BME280;16362;47.202;15.258;2023-06-19T01:45:39;96012.06;;;14.52;100.00
29379;BME280;16362;47.202;15.258;2023-06-19T01:48:05;96007.72;;;14.51;100.00
29379;BME280;16362;47.202;15.258;2023-06-19T01:50:32;95999.03;;;14.49;100.00
29379;BME280;16362;47.202;15.258;2023-06-19T01:52:59;95992.63;;;14.50;100.00
29379;BME280;16362;47.202;15.258;2023-06-19T01:55:26;95995.53;;;14.48;100.00
29379;BME280;16362;47.202;15.258;2023-06-19T01:57:53;95994.06;;;14.46;100.00
29379;BME280;16362;47.202;15.258;2023-06-19T02:00:19;95990.56;;;14.45;100.00
29379;BME280;16362;47.202;15.258;2023-06-19T02:02:46;96001.53;;;14.44;100.00
29379;BME280;16362;47.202;15.258;2023-06-19T02:05:13;96006.03;;;14.43;100.00
29379;BME280;16362;47.202;15.258;2023-06-19T02:07:40;96004.81;;;14.39;100.00
29379;BME280;16362;47.202;15.258;2023-06-19T02:10:07;95997.97;;;14.37;100.00
29379;BME280;16362;47.202;15.258;2023-06-19T02:12:34;95994.91;;;14.33;100.00
29379;BME280;16362;47.202;15.258;2023-06-19T02:15:01;95992.00;;;14.28;100.00
29379;BME280;16362;47.202;15.258;2023-06-19T02:17:28;95995.69;;;14.27;100.00
29379;BME280;16362;47.202;15.258;2023-06-19T02:19:54;95998.19;;;14.28;100.00
29379;BME280;16362;47.202;15.258;2023-06-19T02:22:21;95992.81;;;14.28;100.00
29379;BME280;16362;47.202;15.258;2023-06-19T02:24:48;95995.50;;;14.28;100.00
29379;BME280;16362;47.202;15.258;2023-06-19T02:27:14;95998.38;;;14.27;100.00
29379;BME280;16362;47.202;15.258;2023-06-19T02:29:42;95997.38;;;14.28;100.00
29379;BME280;16362;47.202;15.258;2023-06-19T02:32:09;96002.72;;;14.28;100.00
29379;BME280;16362;47.202;15.258;2023-06-19T02:34:35;95995.91;;;14.25;100.00
29379;BME280;16362;47.202;15.258;2023-06-19T02:37:02;96000.47;;;14.25;100.00
29379;BME280;16362;47.202;15.258;2023-06-19T02:39:29;95995.28;;;14.23;100.00
29379;BME280;16362;47.202;15.258;2023-06-19T02:41:56;95999.41;;;14.19;100.00
29379;BME280;16362;47.202;15.258;2023-06-19T02:44:22;95993.44;;;14.17;100.00
29379;BME280;16362;47.202;15.258;2023-06-19T02:46:49;95994.44;;;14.16;100.00
29379;BME280;16362;47.202;15.258;2023-06-19T02:49:16;95990.53;;;14.12;100.00
29379;BME280;16362;47.202;15.258;2023-06-19T02:51:42;95996.09;;;14.10;100.00
29379;BME280;16362;47.202;15.258;2023-06-19T02:54:09;95999.00;;;14.09;100.00
29379;BME280;16362;47.202;15.258;2023-06-19T02:56:36;95999.38;;;14.06;100.00
29379;BME280;16362;47.202;15.258;2023-06-19T02:59:03;96003.09;;;14.05;100.00
29379;BME280;16362;47.202;15.258;2023-06-19T03:01:30;96010.13;;;13.99;100.00
29379;BME280;16362;47.202;15.258;2023-06-19T03:03:56;96011.13;;;13.98;100.00
29379;BME280;16362;47.202;15.258;2023-06-19T03:06:23;96014.03;;;13.96;100.00
29379;BME280;16362;47.202;15.258;2023-06-19T03:08:50;96011.34;;;13.96;100.00
29379;BME280;16362;47.202;15.258;2023-06-19T03:11:17;96019.78;;;13.93;100.00
29379;BME280;16362;47.202;15.258;2023-06-19T03:13:48;96015.47;;;13.92;100.00
29379;BME280;16362;47.202;15.258;2023-06-19T03:16:15;96022.44;;;13.93;100.00
29379;BME280;16362;47.202;15.258;2023-06-19T03:18:43;96021.44;;;13.94;100.00
29379;BME280;16362;47.202;15.258;2023-06-19T03:21:14;96027.00;;;13.93;100.00
29379;BME280;16362;47.202;15.258;2023-06-19T03:23:41;96023.50;;;13.92;100.00
29379;BME280;16362;47.202;15.258;2023-06-19T03:26:09;96022.88;;;13.90;100.00
29379;BME280;16362;47.202;15.258;2023-06-19T03:28:37;96027.63;;;13.88;100.00
29379;BME280;16362;47.202;15.258;2023-06-19T03:31:03;96030.47;;;13.87;100.00
29379;BME280;16362;47.202;15.258;2023-06-19T03:33:30;96026.34;;;13.84;100.00
29379;BME280;16362;47.202;15.258;2023-06-19T03:35:57;96032.34;;;13.86;100.00
29379;BME280;16362;47.202;15.258;2023-06-19T03:38:23;96030.31;;;13.88;100.00
29379;BME280;16362;47.202;15.258;2023-06-19T03:40:50;96035.66;;;13.88;100.00
29379;BME280;16362;47.202;15.258;2023-06-19T03:43:17;96031.94;;;13.89;100.00
29379;BME280;16362;47.202;15.258;2023-06-19T03:45:43;96038.34;;;13.88;100.00
29379;BME280;16362;47.202;15.258;2023-06-19T03:48:10;96044.53;;;13.89;100.00
29379;BME280;16362;47.202;15.258;2023-06-19T03:50:37;96044.31;;;13.90;100.00
29379;BME280;16362;47.202;15.258;2023-06-19T03:53:03;96042.28;;;13.92;100.00
29379;BME280;16362;47.202;15.258;2023-06-19T03:55:31;96043.72;;;13.95;100.00
29379;BME280;16362;47.202;15.258;2023-06-19T03:57:57;96044.75;;;13.94;100.00
29379;BME280;16362;47.202;15.258;2023-06-19T04:00:24;96044.34;;;13.97;100.00
29379;BME280;16362;47.202;15.258;2023-06-19T04:02:51;96044.34;;;13.97;100.00
29379;BME280;16362;47.202;15.258;2023-06-19T04:05:18;96055.06;;;13.97;100.00
29379;BME280;16362;47.202;15.258;2023-06-19T04:07:46;96054.25;;;13.96;100.00
29379;BME280;16362;47.202;15.258;2023-06-19T04:10:12;96046.81;;;13.98;100.00
29379;BME280;16362;47.202;15.258;2023-06-19T04:12:40;96050.16;;;14.01;100.00
29379;BME280;16362;47.202;15.258;2023-06-19T04:15:07;96048.91;;;13.96;100.00
29379;BME280;16362;47.202;15.258;2023-06-19T04:17:34;96056.53;;;14.00;100.00
29379;BME280;16362;47.202;15.258;2023-06-19T04:20:01;96052.41;;;14.04;100.00
29379;BME280;16362;47.202;15.258;2023-06-19T04:22:29;96053.88;;;14.06;100.00
29379;BME280;16362;47.202;15.258;2023-06-19T04:24:56;96052.00;;;14.07;100.00
29379;BME280;16362;47.202;15.258;2023-06-19T04:27:23;96053.47;;;14.09;100.00
29379;BME280;16362;47.202;15.258;2023-06-19T04:29:49;96058.63;;;14.11;100.00
29379;BME280;16362;47.202;15.258;2023-06-19T04:32:19;96051.81;;;14.15;100.00
29379;BME280;16362;47.202;15.258;2023-06-19T04:34:47;96056.41;;;14.21;100.00
29379;BME280;16362;47.202;15.258;2023-06-19T04:37:14;96050.22;;;14.21;100.00
29379;BME280;16362;47.202;15.258;2023-06-19T04:39:45;96056.19;;;14.23;100.00
29379;BME280;16362;47.202;15.258;2023-06-19T04:42:13;96059.50;;;14.25;100.00
29379;BME280;16362;47.202;15.258;2023-06-19T04:44:46;96052.88;;;14.27;100.00
29379;BME280;16362;47.202;15.258;2023-06-19T04:47:18;96063.22;;;14.30;100.00
29379;BME280;16362;47.202;15.258;2023-06-19T04:49:45;96062.22;;;14.31;100.00
29379;BME280;16362;47.202;15.258;2023-06-19T04:52:12;96057.88;;;14.37;100.00
29379;BME280;16362;47.202;15.258;2023-06-19T04:54:38;96052.09;;;14.40;100.00
29379;BME280;16362;47.202;15.258;2023-06-19T04:57:05;96055.22;;;14.44;100.00
29379;BME280;16362;47.202;15.258;2023-06-19T04:59:33;96055.81;;;14.46;100.00
29379;BME280;16362;47.202;15.258;2023-06-19T05:02:00;96054.00;;;14.67;100.00
29379;BME280;16362;47.202;15.258;2023-06-19T05:04:27;96053.22;;;15.06;100.00
29379;BME280;16362;47.202;15.258;2023-06-19T05:06:53;96052.75;;;15.43;100.00
29379;BME280;16362;47.202;15.258;2023-06-19T05:09:20;96052.03;;;15.74;100.00
29379;BME280;16362;47.202;15.258;2023-06-19T05:11:47;96052.16;;;15.99;100.00
29379;BME280;16362;47.202;15.258;2023-06-19T05:14:13;96047.03;;;16.30;100.00
29379;BME280;16362;47.202;15.258;2023-06-19T05:16:41;96043.88;;;16.72;100.00
29379;BME280;16362;47.202;15.258;2023-06-19T05:19:08;96049.09;;;16.98;100.00
29379;BME280;16362;47.202;15.258;2023-06-19T05:21:35;96049.06;;;17.24;100.00
29379;BME280;16362;47.202;15.258;2023-06-19T05:24:02;96049.50;;;17.64;100.00
29379;BME280;16362;47.202;15.258;2023-06-19T05:26:29;96045.84;;;17.96;100.00
29379;BME280;16362;47.202;15.258;2023-06-19T05:28:56;96046.09;;;18.25;100.00
29379;BME280;16362;47.202;15.258;2023-06-19T05:31:22;96045.63;;;18.58;100.00
29379;BME280;16362;47.202;15.258;2023-06-19T05:33:49;96050.63;;;18.85;100.00
29379;BME280;16362;47.202;15.258;2023-06-19T05:36:15;96048.69;;;19.16;100.00
29379;BME280;16362;47.202;15.258;2023-06-19T05:38:42;96042.00;;;19.42;100.00
29379;BME280;16362;47.202;15.258;2023-06-19T05:41:09;96044.53;;;19.73;100.00
29379;BME280;16362;47.202;15.258;2023-06-19T05:43:36;96036.66;;;19.95;100.00
29379;BME280;16362;47.202;15.258;2023-06-19T05:46:02;96044.13;;;20.16;100.00
29379;BME280;16362;47.202;15.258;2023-06-19T05:48:29;96046.66;;;20.35;100.00
29379;BME280;16362;47.202;15.258;2023-06-19T05:50:56;96049.38;;;20.35;98.88
29379;BME280;16362;47.202;15.258;2023-06-19T05:53:23;96040.44;;;20.51;97.24
29379;BME280;16362;47.202;15.258;2023-06-19T05:55:50;96045.75;;;20.75;97.41
29379;BME280;16362;47.202;15.258;2023-06-19T05:58:16;96048.91;;;21.01;97.80
29379;BME280;16362;47.202;15.258;2023-06-19T06:00:46;96047.44;;;21.27;97.47
29379;BME280;16362;47.202;15.258;2023-06-19T06:03:13;96044.44;;;21.46;95.76
29379;BME280;16362;47.202;15.258;2023-06-19T06:05:41;96051.81;;;21.67;95.50
29379;BME280;16362;47.202;15.258;2023-06-19T06:08:08;96046.50;;;21.95;94.74
29379;BME280;16362;47.202;15.258;2023-06-19T06:10:35;96046.44;;;22.12;90.79
29379;BME280;16362;47.202;15.258;2023-06-19T06:13:02;96042.38;;;22.14;91.41
29379;BME280;16362;47.202;15.258;2023-06-19T06:15:28;96045.50;;;22.23;91.05
29379;BME280;16362;47.202;15.258;2023-06-19T06:17:55;96050.03;;;22.40;92.58
29379;BME280;16362;47.202;15.258;2023-06-19T06:20:22;96055.13;;;22.58;90.54
29379;BME280;16362;47.202;15.258;2023-06-19T06:22:49;96050.31;;;22.65;88.77
29379;BME280;16362;47.202;15.258;2023-06-19T06:25:16;96045.13;;;22.64;90.93
29379;BME280;16362;47.202;15.258;2023-06-19T06:27:43;96053.91;;;22.71;91.44
29379;BME280;16362;47.202;15.258;2023-06-19T06:30:11;96045.53;;;22.78;89.73
29379;BME280;16362;47.202;15.258;2023-06-19T06:32:38;96052.53;;;23.01;90.16
29379;BME280;16362;47.202;15.258;2023-06-19T06:35:05;96045.13;;;23.24;90.59
29379;BME280;16362;47.202;15.258;2023-06-19T06:37:32;96043.41;;;23.50;87.93
29379;BME280;16362;47.202;15.258;2023-06-19T06:39:59;96054.13;;;23.67;85.19
29379;BME280;16362;47.202;15.258;2023-06-19T06:42:25;96048.00;;;23.87;84.54
29379;BME280;16362;47.202;15.258;2023-06-19T06:44:52;96045.66;;;24.06;85.27
29379;BME280;16362;47.202;15.258;2023-06-19T06:47:19;96046.19;;;24.08;75.89
29379;BME280;16362;47.202;15.258;2023-06-19T06:49:45;96050.38;;;24.26;78.70
29379;BME280;16362;47.202;15.258;2023-06-19T06:52:12;96040.59;;;24.46;74.07
29379;BME280;16362;47.202;15.258;2023-06-19T06:54:39;96045.28;;;24.61;74.74
29379;BME280;16362;47.202;15.258;2023-06-19T06:57:06;96038.78;;;24.77;76.91
29379;BME280;16362;47.202;15.258;2023-06-19T06:59:33;96046.72;;;25.10;76.16
29379;BME280;16362;47.202;15.258;2023-06-19T07:01:59;96041.81;;;25.27;75.73
29379;BME280;16362;47.202;15.258;2023-06-19T07:04:26;96043.44;;;25.18;65.80
29379;BME280;16362;47.202;15.258;2023-06-19T07:06:53;96043.44;;;25.18;67.13
29379;BME280;16362;47.202;15.258;2023-06-19T07:09:20;96040.47;;;25.35;65.83
29379;BME280;16362;47.202;15.258;2023-06-19T07:11:48;96037.41;;;25.57;68.57
29379;BME280;16362;47.202;15.258;2023-06-19T07:14:18;96035.25;;;25.64;68.47
29379;BME280;16362;47.202;15.258;2023-06-19T07:16:45;96028.63;;;25.86;67.50
29379;BME280;16362;47.202;15.258;2023-06-19T07:19:12;96030.25;;;25.87;58.22
29379;BME280;16362;47.202;15.258;2023-06-19T07:21:40;96027.50;;;25.87;59.85
29379;BME280;16362;47.202;15.258;2023-06-19T07:24:07;96028.88;;;26.05;60.07
29379;BME280;16362;47.202;15.258;2023-06-19T07:26:34;96033.25;;;26.06;58.01
29379;BME280;16362;47.202;15.258;2023-06-19T07:29:02;96030.16;;;26.18;57.58
29379;BME280;16362;47.202;15.258;2023-06-19T07:31:28;96031.41;;;26.41;60.05
29379;BME280;16362;47.202;15.258;2023-06-19T07:33:55;96032.66;;;26.64;59.89
29379;BME280;16362;47.202;15.258;2023-06-19T07:36:22;96022.59;;;26.49;57.85
29379;BME280;16362;47.202;15.258;2023-06-19T07:38:48;96029.97;;;26.59;55.78
29379;BME280;16362;47.202;15.258;2023-06-19T07:41:15;96026.84;;;26.76;57.61
29379;BME280;16362;47.202;15.258;2023-06-19T07:43:42;96023.28;;;26.81;49.77
29379;BME280;16362;47.202;15.258;2023-06-19T07:46:09;96023.03;;;26.77;52.53
29379;BME280;16362;47.202;15.258;2023-06-19T07:48:36;96022.09;;;26.92;57.56
29379;BME280;16362;47.202;15.258;2023-06-19T07:51:03;96018.09;;;27.14;51.94
29379;BME280;16362;47.202;15.258;2023-06-19T07:53:29;96018.78;;;27.30;54.46
29379;BME280;16362;47.202;15.258;2023-06-19T07:55:56;96018.03;;;27.53;52.81
29379;BME280;16362;47.202;15.258;2023-06-19T07:58:22;96017.97;;;27.59;53.79
29379;BME280;16362;47.202;15.258;2023-06-19T08:00:49;96025.19;;;27.49;51.14
29379;BME280;16362;47.202;15.258;2023-06-19T08:03:16;96024.81;;;27.61;51.06
29379;BME280;16362;47.202;15.258;2023-06-19T08:05:43;96020.63;;;27.69;51.95
29379;BME280;16362;47.202;15.258;2023-06-19T08:08:12;96014.75;;;27.81;52.56
29379;BME280;16362;47.202;15.258;2023-06-19T08:10:38;96020.88;;;27.72;51.40
29379;BME280;16362;47.202;15.258;2023-06-19T08:13:05;96019.00;;;27.92;52.46
29379;BME280;16362;47.202;15.258;2023-06-19T08:15:32;96013.34;;;27.83;50.88
29379;BME280;16362;47.202;15.258;2023-06-19T08:17:58;96006.88;;;27.98;50.76
29379;BME280;16362;47.202;15.258;2023-06-19T08:20:25;96021.31;;;27.55;49.71
29379;BME280;16362;47.202;15.258;2023-06-19T08:22:52;96021.31;;;27.80;51.46
29379;BME280;16362;47.202;15.258;2023-06-19T08:25:19;96023.59;;;27.72;49.92
29379;BME280;16362;47.202;15.258;2023-06-19T08:27:46;96013.63;;;27.82;51.09
29379;BME280;16362;47.202;15.258;2023-06-19T08:30:13;96015.81;;;28.09;48.07
29379;BME280;16362;47.202;15.258;2023-06-19T08:32:39;96014.22;;;28.03;53.92
29379;BME280;16362;47.202;15.258;2023-06-19T08:35:06;96017.34;;;27.91;48.47
29379;BME280;16362;47.202;15.258;2023-06-19T08:37:34;96010.38;;;27.80;50.94
29379;BME280;16362;47.202;15.258;2023-06-19T08:40:00;96011.31;;;27.94;48.44
29379;BME280;16362;47.202;15.258;2023-06-19T08:42:27;96010.94;;;28.01;52.02
29379;BME280;16362;47.202;15.258;2023-06-19T08:44:54;96011.50;;;27.98;49.40
29379;BME280;16362;47.202;15.258;2023-06-19T08:47:20;96022.97;;;27.81;49.65
29379;BME280;16362;47.202;15.258;2023-06-19T08:49:47;96007.97;;;27.97;51.48
29379;BME280;16362;47.202;15.258;2023-06-19T08:52:14;96007.78;;;27.88;50.04
29379;BME280;16362;47.202;15.258;2023-06-19T08:54:41;96005.22;;;27.97;49.81
29379;BME280;16362;47.202;15.258;2023-06-19T08:57:11;96007.22;;;27.92;48.54
29379;BME280;16362;47.202;15.258;2023-06-19T08:59:39;96011.81;;;27.96;48.17
29379;BME280;16362;47.202;15.258;2023-06-19T09:02:06;96009.19;;;27.86;50.21
29379;BME280;16362;47.202;15.258;2023-06-19T09:04:33;96006.28;;;28.26;47.01
29379;BME280;16362;47.202;15.258;2023-06-19T09:07:02;96009.69;;;28.36;50.17
29379;BME280;16362;47.202;15.258;2023-06-19T09:09:29;96004.28;;;28.31;48.22
29379;BME280;16362;47.202;15.258;2023-06-19T09:14:34;96007.91;;;28.27;45.71
29379;BME280;16362;47.202;15.258;2023-06-19T09:17:02;95998.72;;;28.55;46.45
29379;BME280;16362;47.202;15.258;2023-06-19T09:19:29;95998.38;;;28.62;49.40
29379;BME280;16362;47.202;15.258;2023-06-19T09:22:03;95992.59;;;28.83;45.78
29379;BME280;16362;47.202;15.258;2023-06-19T09:24:38;95993.13;;;28.85;43.00
29379;BME280;16362;47.202;15.258;2023-06-19T09:27:10;95991.03;;;28.96;43.69
29379;BME280;16362;47.202;15.258;2023-06-19T09:29:40;95990.06;;;28.86;45.05
29379;BME280;16362;47.202;15.258;2023-06-19T09:32:34;95986.09;;;29.45;43.82
29379;BME280;16362;47.202;15.258;2023-06-19T09:35:01;95986.53;;;29.80;44.10
29379;BME280;16362;47.202;15.258;2023-06-19T09:37:30;95983.47;;;29.81;45.57
29379;BME280;16362;47.202;15.258;2023-06-19T09:40:01;95985.00;;;29.73;42.57
29379;BME280;16362;47.202;15.258;2023-06-19T09:42:42;95982.16;;;30.06;44.57
29379;BME280;16362;47.202;15.258;2023-06-19T09:45:11;95980.72;;;30.23;40.95
29379;BME280;16362;47.202;15.258;2023-06-19T09:47:42;95978.25;;;30.21;39.36
29379;BME280;16362;47.202;15.258;2023-06-19T09:50:13;95973.91;;;30.06;39.87
29379;BME280;16362;47.202;15.258;2023-06-19T09:52:41;95978.16;;;29.57;40.64
29379;BME280;16362;47.202;15.258;2023-06-19T09:55:11;95979.06;;;29.19;44.15
29379;BME280;16362;47.202;15.258;2023-06-19T09:57:41;95971.34;;;28.88;45.67
29379;BME280;16362;47.202;15.258;2023-06-19T10:00:09;95973.97;;;28.61;50.34
29379;BME280;16362;47.202;15.258;2023-06-19T10:02:43;95972.94;;;28.37;52.75
29379;BME280;16362;47.202;15.258;2023-06-19T10:05:11;95979.28;;;28.14;50.96
29379;BME280;16362;47.202;15.258;2023-06-19T10:07:43;95972.81;;;27.99;57.16
29379;BME280;16362;47.202;15.258;2023-06-19T10:10:21;95981.31;;;28.03;56.33
29379;BME280;16362;47.202;15.258;2023-06-19T10:12:49;95980.31;;;27.94;61.01
29379;BME280;16362;47.202;15.258;2023-06-19T10:15:17;95978.81;;;27.82;62.43
29379;BME280;16362;47.202;15.258;2023-06-19T10:18:02;95978.97;;;27.67;51.94
29379;BME280;16362;47.202;15.258;2023-06-19T10:20:33;95970.34;;;27.54;53.64
29379;BME280;16362;47.202;15.258;2023-06-19T10:25:48;95978.91;;;27.48;69.05
29379;BME280;16362;47.202;15.258;2023-06-19T10:28:28;95983.81;;;27.51;63.72
29379;BME280;16362;47.202;15.258;2023-06-19T10:31:03;95986.56;;;27.51;59.32
29379;BME280;16362;47.202;15.258;2023-06-19T10:33:32;95985.00;;;27.39;58.50
29379;BME280;16362;47.202;15.258;2023-06-19T10:36:15;95987.25;;;27.37;60.06
29379;BME280;16362;47.202;15.258;2023-06-19T10:38:43;95989.91;;;27.43;69.16
29379;BME280;16362;47.202;15.258;2023-06-19T10:43:55;95990.97;;;27.47;54.37
29379;BME280;16362;47.202;15.258;2023-06-19T10:46:22;95989.47;;;27.60;55.34
29379;BME280;16362;47.202;15.258;2023-06-19T10:48:50;95993.50;;;27.67;52.38
29379;BME280;16362;47.202;15.258;2023-06-19T10:51:21;95991.91;;;27.61;53.52
29379;BME280;16362;47.202;15.258;2023-06-19T10:53:47;95998.09;;;27.48;50.78
29379;BME280;16362;47.202;15.258;2023-06-19T10:56:15;95998.66;;;27.45;51.85
29379;BME280;16362;47.202;15.258;2023-06-19T10:58:46;95996.72;;;27.45;53.22
29379;BME280;16362;47.202;15.258;2023-06-19T11:01:13;96006.63;;;27.70;55.05
29379;BME280;16362;47.202;15.258;2023-06-19T11:03:39;96000.38;;;27.89;56.62
29379;BME280;16362;47.202;15.258;2023-06-19T11:06:06;96011.81;;;27.96;58.64
29379;BME280;16362;47.202;15.258;2023-06-19T11:08:34;96002.31;;;28.13;59.91
29379;BME280;16362;47.202;15.258;2023-06-19T11:11:00;96002.94;;;28.29;58.55
29379;BME280;16362;47.202;15.258;2023-06-19T11:13:27;96005.69;;;28.29;50.01
29379;BME280;16362;47.202;15.258;2023-06-19T11:15:54;96010.66;;;28.27;57.27
29379;BME280;16362;47.202;15.258;2023-06-19T11:18:20;96004.59;;;28.05;54.21
29379;BME280;16362;47.202;15.258;2023-06-19T11:20:49;96006.53;;;28.05;52.14
29379;BME280;16362;47.202;15.258;2023-06-19T11:23:25;96013.88;;;28.10;55.04
29379;BME280;16362;47.202;15.258;2023-06-19T11:25:52;96013.63;;;28.06;54.72
29379;BME280;16362;47.202;15.258;2023-06-19T11:28:18;96010.19;;;28.19;55.65
29379;BME280;16362;47.202;15.258;2023-06-19T11:30:49;96010.13;;;28.25;46.53
29379;BME280;16362;47.202;15.258;2023-06-19T11:33:24;96006.34;;;28.39;42.10
29379;BME280;16362;47.202;15.258;2023-06-19T11:35:52;96002.94;;;28.48;46.34
29379;BME280;16362;47.202;15.258;2023-06-19T11:38:24;96003.56;;;28.45;42.42
29379;BME280;16362;47.202;15.258;2023-06-19T11:40:53;96009.34;;;28.43;48.37
29379;BME280;16362;47.202;15.258;2023-06-19T11:43:25;96007.53;;;28.33;50.22
29379;BME280;16362;47.202;15.258;2023-06-19T11:45:52;95999.28;;;28.33;52.48
29379;BME280;16362;47.202;15.258;2023-06-19T11:48:23;95996.34;;;28.30;54.16
29379;BME280;16362;47.202;15.258;2023-06-19T11:50:51;95997.63;;;28.37;54.07
29379;BME280;16362;47.202;15.258;2023-06-19T11:53:20;95991.84;;;28.58;52.21
29379;BME280;16362;47.202;15.258;2023-06-19T11:55:47;95993.25;;;28.75;49.53
29379;BME280;16362;47.202;15.258;2023-06-19T11:58:13;96001.44;;;28.80;46.27
29379;BME280;16362;47.202;15.258;2023-06-19T12:00:42;95993.69;;;28.82;48.97
29379;BME280;16362;47.202;15.258;2023-06-19T12:03:10;95993.53;;;28.92;39.96
29379;BME280;16362;47.202;15.258;2023-06-19T12:05:38;95992.31;;;29.17;42.84
29379;BME280;16362;47.202;15.258;2023-06-19T12:08:04;95987.41;;;29.47;43.38
29379;BME280;16362;47.202;15.258;2023-06-19T12:10:33;95986.19;;;29.67;42.82
29379;BME280;16362;47.202;15.258;2023-06-19T12:13:00;95982.75;;;29.76;40.55
29379;BME280;16362;47.202;15.258;2023-06-19T12:15:27;95976.13;;;29.63;35.52
29379;BME280;16362;47.202;15.258;2023-06-19T12:17:54;95981.03;;;29.80;41.72
29379;BME280;16362;47.202;15.258;2023-06-19T12:20:24;95972.97;;;29.83;39.08
29379;BME280;16362;47.202;15.258;2023-06-19T12:22:52;95971.66;;;29.81;36.27
29379;BME280;16362;47.202;15.258;2023-06-19T12:25:19;95971.56;;;29.86;38.42
29379;BME280;16362;47.202;15.258;2023-06-19T12:27:45;95966.75;;;29.78;40.53
29379;BME280;16362;47.202;15.258;2023-06-19T12:30:12;95961.25;;;29.78;41.43
29379;BME280;16362;47.202;15.258;2023-06-19T12:32:39;95970.44;;;29.73;37.62
29379;BME280;16362;47.202;15.258;2023-06-19T12:35:06;95977.97;;;29.81;40.66
29379;BME280;16362;47.202;15.258;2023-06-19T12:37:34;95971.94;;;29.79;42.38
29379;BME280;16362;47.202;15.258;2023-06-19T12:40:00;95968.00;;;29.71;40.65
29379;BME280;16362;47.202;15.258;2023-06-19T12:42:27;95960.88;;;29.70;37.63
29379;BME280;16362;47.202;15.258;2023-06-19T12:44:54;95964.63;;;29.74;39.10
29379;BME280;16362;47.202;15.258;2023-06-19T12:47:20;95970.00;;;29.66;40.98
29379;BME280;16362;47.202;15.258;2023-06-19T12:49:47;95962.47;;;29.57;41.99
29379;BME280;16362;47.202;15.258;2023-06-19T12:52:14;95964.69;;;29.42;40.89
29379;BME280;16362;47.202;15.258;2023-06-19T12:54:40;95960.00;;;29.28;38.28
29379;BME280;16362;47.202;15.258;2023-06-19T12:57:08;95956.19;;;29.24;39.06
29379;BME280;16362;47.202;15.258;2023-06-19T12:59:35;95950.03;;;29.32;41.10